METARs


 

Curacao


TNCC 060700Z 12012KT 9999 FEW018 28/23 Q1012 NOSIG

 

Aruba


TNCA 060700Z 10018KT 9999 SCT018 28/24 Q1011 NOSIG

 

Bonaire


TNCB 060655Z AUTO 10012KT 9999 FEW022/// 28/23 Q1012

 

 

TAFs


 

Curacao


TAF TNCC 060500Z 0606/0706 10013KT 9999 SCT018 PROB30 TEMPO 0608/0618 6000 SHRA BKN014

Aruba


TAF TAF TNCA 060502Z 0606/0706 09016KT 9999 FEW018

Bonaire


TAF TNCB 060427Z 0606/0712 09017KT 9999 SCT018 PROB30 TEMPO 0612/0618 4500 SHRA SCT015CB

 

 

Caribbean Surface Analysis